Flight Track Log - Related Links

Times and Time Zones

All times are in EST time to prevent confusion due to time zone crossing. See the EJA929 flight status page for this flight to view local times or setup timezone preferences in your user account.

Time Position Orientation Groundspeed Altitude Reporting Facility
EST Latitude Longitude Course Direction KTS MPH feet Rate Location/Type
Fri 05:18:34 PM 41.0333 -73.7167 311° West 189 217 2,300  Level New York TRACON
Fri 05:19:34 PM 41.0667 -73.7667 311° West 216 249 3,300 1,950 Climbing New York TRACON
Fri 05:20:34 PM 41.1000 -73.8333 304° West 246 283 6,200 2,571 Climbing New York TRACON
Fri 05:21:33 PM 41.1500 -73.9167 309° West 259 298 8,400 1,450 Climbing New York TRACON
Fri 05:22:34 PM 41.2167 -73.9167 360° North 308 354 9,100 347 Climbing New York TRACON
Fri 05:23:34 PM 41.2333 -73.8000 79° East 324 373 9,100  Level New York TRACON
Fri 05:24:34 PM 41.2500 -73.6833 79° East 326 375 9,100  Level New York TRACON
Fri 05:25:34 PM 41.2833 -73.5667 69° East 325 374 9,100  Level New York TRACON
Fri 05:26:34 PM 41.2667 -73.4500 101° East 322 371 9,100 -32 Level New York TRACON
Fri 05:28:39 PM 41.2367 -73.2322 100° East 315 362 9,000 -32 Descending Boston Center
Fri 05:29:40 PM 41.2233 -73.1164 99° East 317 365 9,000  Level Boston Center
Fri 05:30:42 PM 41.2097 -73.0056 99° East 309 356 9,000 295 Level Boston Center
Fri 05:31:42 PM 41.1781 -72.9081 113° Southeast 296 341 9,600 629 Climbing Boston Center
Fri 05:32:46 PM 41.1047 -72.8439 147° Southeast 313 360 10,300 667 Climbing Boston Center
Fri 05:33:48 PM 41.0217 -72.7514 140° Southeast 381 438 11,000 344 Climbing Boston Center
Fri 05:34:48 PM 40.9303 -72.6531 141° Southeast 408 470 11,000 541 Level Boston Center
Fri 05:35:50 PM 40.8383 -72.5519 140° Southeast 413 475 12,100 1,770 Climbing Boston Center
Fri 05:36:50 PM 40.7375 -72.5403 175° South 375 432 14,600 2,177 Climbing Boston Center
Fri 05:37:54 PM 40.6575 -72.6214 218° Southwest 361 415 16,600 1,984 Climbing Boston Center
Fri 05:38:54 PM 40.5656 -72.7286 222° Southwest 366 421 18,700 2,033 Climbing Boston Center
Fri 05:39:55 PM 40.4897 -72.8167 221° Southwest 375 432 20,700 1,983 Climbing Boston Center
Fri 05:40:55 PM 40.4081 -72.9094 221° Southwest 386 444 22,700 1,984 Climbing Boston Center
Fri 05:41:59 PM 40.3250 -73.0025 221° Southwest 393 452 24,800 2,016 Climbing Boston Center
Fri 05:43:00 PM 40.2414 -73.0981 221° Southwest 399 459 26,900 2,083 Climbing Boston Center
Fri 05:44:00 PM 40.1519 -73.1997 221° Southwest 408 470 29,000 2,016 Climbing Boston Center
Fri 05:45:02 PM 40.0631 -73.2986 220° Southwest 417 480 31,000 2,000 Climbing Boston Center
Fri 05:46:12 PM 39.9564 -73.4208 221° Southwest 426 490 33,400 2,010 Climbing Washington Center
Fri 05:48:13 PM 39.7783 -73.6153 220° Southwest 427 491 37,400 1,978 Climbing Washington Center
Fri 05:49:14 PM 39.6925 -73.7067 219° Southwest 415 478 39,400 1,881 Climbing Washington Center
Fri 05:50:11 PM 39.6061 -73.7869 216° Southwest 402 463 41,100 1,373 Climbing Washington Center
Fri 05:51:12 PM 39.5178 -73.8725 217° Southwest 397 457 42,100 942 Climbing Washington Center
Fri 05:52:12 PM 39.4294 -73.9581 217° Southwest 397 457 43,000 446 Climbing Washington Center
Fri 05:53:13 PM 39.3389 -74.0433 216° Southwest 402 463 43,000  Level Washington Center
Fri 05:54:11 PM 39.2442 -74.1336 216° Southwest 414 476 43,000  Level Washington Center
Fri 05:55:12 PM 39.1492 -74.2239 216° Southwest 424 488 43,000  Level Washington Center
Fri 05:56:12 PM 39.0522 -74.3167 217° Southwest 430 495 43,000  Level Washington Center
Fri 05:57:12 PM 38.9531 -74.4064 215° Southwest 436 502 43,000  Level Washington Center
Fri 05:58:13 PM 38.8478 -74.5069 217° Southwest 436 502 43,000  Level Washington Center
Fri 05:59:11 PM 38.7486 -74.5989 216° Southwest 436 502 43,000  Level Washington Center
Fri 06:00:12 PM 38.6514 -74.6878 216° Southwest 436 502 43,000  Level Washington Center
Fri 06:01:13 PM 38.5519 -74.7819 217° Southwest 441 507 43,000  Level Washington Center
Fri 06:02:13 PM 38.4544 -74.8706 215° Southwest 446 513 43,000  Level Washington Center
Fri 06:03:11 PM 38.3569 -74.9589 215° Southwest 446 513 43,000 -50 Level Washington Center
Fri 06:04:12 PM 38.2594 -75.0522 217° Southwest 441 507 42,900  Descending Washington Center
Fri 06:05:13 PM 38.1617 -75.1403 215° Southwest 441 507 43,000 50 Climbing Washington Center
Fri 06:06:11 PM 38.0600 -75.2306 215° Southwest 441 507 43,000  Level Washington Center
Fri 06:07:11 PM 37.9622 -75.3206 216° Southwest 446 513 43,000  Level Washington Center
Fri 06:08:12 PM 37.8664 -75.4078 216° Southwest 446 513 43,000 -50 Level Washington Center
Fri 06:09:12 PM 37.7664 -75.4972 215° Southwest 446 513 42,900  Descending Washington Center
Fri 06:10:13 PM 37.6706 -75.5839 216° Southwest 441 507 43,000 555 Climbing Washington Center
Fri 06:11:11 PM 37.5808 -75.6625 215° Southwest 428 493 44,000 966 Climbing Washington Center
Fri 06:12:11 PM 37.4911 -75.7436 216° Southwest 415 478 44,900 492 Climbing Washington Center
Fri 06:13:13 PM 37.3992 -75.8244 215° Southwest 405 466 45,000 49 Climbing Washington Center
Fri 06:14:13 PM 37.3072 -75.9078 216° Southwest 405 466 45,000  Level Washington Center
Fri 06:15:11 PM 37.2111 -75.9933 215° Southwest 411 473 45,000  Level Washington Center
Fri 06:16:11 PM 37.1231 -76.0711 215° Southwest 428 493 45,000  Level Washington Center
Fri 06:17:12 PM 37.0100 -76.1617 213° Southwest 433 498 45,000  Level Washington Center
Fri 06:18:12 PM 36.9117 -76.2464 215° Southwest 445 512 45,000  Level Washington Center
Fri 06:19:13 PM 36.8131 -76.3314 215° Southwest 445 512 45,000  Level Washington Center
Fri 06:20:14 PM 36.7144 -76.4158 214° Southwest 445 512 45,000 -50 Level Washington Center
Fri 06:21:12 PM 36.6261 -76.5003 218° Southwest 445 512 44,900  Descending Washington Center
Fri 06:22:12 PM 36.5275 -76.5844 214° Southwest 445 512 45,000 50 Climbing Washington Center
Fri 06:23:13 PM 36.4244 -76.6708 214° Southwest 445 512 45,000  Level Washington Center
Fri 06:24:13 PM 36.3256 -76.7572 215° Southwest 445 512 45,000  Level Washington Center
Fri 06:25:11 PM 36.2247 -76.8408 214° Southwest 445 512 45,000  Level Washington Center
Fri 06:26:12 PM 36.1256 -76.9267 215° Southwest 445 512 45,000  Level Washington Center
Fri 06:27:12 PM 36.0225 -77.0122 214° Southwest 445 512 45,000  Level Washington Center
Fri 06:28:13 PM 35.9233 -77.0950 214° Southwest 445 512 45,000  Level Washington Center
Fri 06:29:11 PM 35.8158 -77.1878 215° Southwest 437 503 45,000  Level Washington Center
Fri 06:30:12 PM 35.7125 -77.2703 213° Southwest 437 503 45,000  Level Washington Center
Fri 06:31:12 PM 35.6089 -77.3575 214° Southwest 442 509 45,000  Level Washington Center
Fri 06:32:13 PM 35.5075 -77.4419 214° Southwest 447 514 45,000  Level Washington Center
Fri 06:33:13 PM 35.4019 -77.5261 213° Southwest 447 514 45,000 -508 Level Washington Center
Fri 06:34:11 PM 35.3003 -77.6078 213° Southwest 447 514 44,000 -1,008 Descending Washington Center
Fri 06:35:12 PM 35.1989 -77.6889 213° Southwest 447 514 43,000 -496 Descending Washington Center
Fri 06:36:12 PM 35.0992 -77.7678 213° Southwest 447 514 43,000  Level Washington Center
Fri 06:37:13 PM 34.9997 -77.8486 214° Southwest 442 509 43,000  Level Washington Center
Fri 06:38:13 PM 34.9022 -77.9294 214° Southwest 442 509 43,000  Level Washington Center
Fri 06:39:11 PM 34.8089 -78.0103 215° Southwest 437 503 43,000  Level Washington Center
Fri 06:41:29 PM 34.5872 -78.1842 213° Southwest 429 494 43,000  Level Jacksonville Center
Fri 06:42:29 PM 34.4858 -78.2678 214° Southwest 434 499 43,000  Level Jacksonville Center
Fri 06:43:29 PM 34.3764 -78.3542 213° Southwest 434 499 43,000  Level Jacksonville Center
Fri 06:44:29 PM 34.2769 -78.4322 213° Southwest 434 499 43,000  Level Jacksonville Center
Fri 06:45:29 PM 34.1756 -78.5103 213° Southwest 434 499 43,000  Level Jacksonville Center
Fri 06:46:29 PM 34.0692 -78.5758 207° Southwest 434 499 43,000  Level Jacksonville Center
Fri 06:47:29 PM 33.9608 -78.6361 205° Southwest 434 499 43,000  Level Jacksonville Center
Fri 06:48:29 PM 33.8481 -78.6992 205° Southwest 444 511 43,000  Level Jacksonville Center
Fri 06:49:29 PM 33.7375 -78.7619 205° Southwest 444 511 43,000  Level Jacksonville Center
Fri 06:50:29 PM 33.6289 -78.8219 205° Southwest 444 511 43,000  Level Jacksonville Center
Fri 06:51:29 PM 33.5181 -78.8842 205° Southwest 438 504 43,000  Level Jacksonville Center
Fri 06:52:29 PM 33.4175 -78.9336 202° Southwest 438 504 43,000  Level Jacksonville Center
Fri 06:53:29 PM 33.3108 -78.9956 206° Southwest 438 504 43,000  Level Jacksonville Center
Fri 06:54:29 PM 33.1981 -79.0575 205° Southwest 438 504 43,000  Level Jacksonville Center
Fri 06:55:29 PM 33.0850 -79.1194 205° Southwest 438 504 43,000  Level Jacksonville Center
Fri 06:56:29 PM 32.9742 -79.1808 205° Southwest 438 504 43,000  Level Jacksonville Center
Fri 06:57:29 PM 32.8611 -79.2425 205° Southwest 438 504 43,000  Level Jacksonville Center
Fri 06:58:29 PM 32.7481 -79.3039 205° Southwest 438 504 43,000  Level Jacksonville Center
Fri 06:59:29 PM 32.6350 -79.3650 204° Southwest 443 510 43,000  Level Jacksonville Center
Fri 07:00:29 PM 32.5219 -79.4286 205° Southwest 448 516 43,000  Level Jacksonville Center
Fri 07:01:29 PM 32.4089 -79.4894 204° Southwest 448 516 43,000  Level Jacksonville Center
Fri 07:02:29 PM 32.2958 -79.5503 204° Southwest 448 516 43,000  Level Jacksonville Center
Fri 07:03:29 PM 32.1825 -79.6133 205° Southwest 448 516 43,000  Level Jacksonville Center
Fri 07:04:29 PM 32.0672 -79.6739 204° Southwest 453 521 43,000  Level Jacksonville Center
Fri 07:05:29 PM 31.9561 -79.7339 205° Southwest 453 521 43,000  Level Jacksonville Center
Fri 07:06:29 PM 31.8325 -79.8017 205° Southwest 453 521 43,000  Level Jacksonville Center
Fri 07:07:29 PM 31.7192 -79.8642 205° Southwest 453 521 43,000  Level Jacksonville Center
Fri 07:08:29 PM 31.6036 -79.9217 203° Southwest 453 521 43,000  Level Jacksonville Center
Fri 07:09:29 PM 31.4900 -79.9836 205° Southwest 459 528 43,000  Level Jacksonville Center
Fri 07:10:29 PM 31.3747 -80.0481 206° Southwest 459 528 43,000  Level Jacksonville Center
Fri 07:11:29 PM 31.2611 -80.1050 203° Southwest 453 521 43,000 -750 Level Jacksonville Center
Fri 07:12:29 PM 31.1497 -80.1667 205° Southwest 453 521 41,500 -1,900 Descending Jacksonville Center
Fri 07:13:29 PM 31.0361 -80.2256 204° Southwest 453 521 39,200 -2,350 Descending Jacksonville Center
Fri 07:14:29 PM 30.9225 -80.2822 203° Southwest 453 521 36,800 -2,400 Descending Jacksonville Center
Fri 07:15:29 PM 30.8089 -80.3433 205° Southwest 453 521 34,400 -2,350 Descending Jacksonville Center
Fri 07:16:29 PM 30.6911 -80.4019 203° Southwest 458 527 32,100 -1,200 Descending Jacksonville Center
Fri 07:17:29 PM 30.5733 -80.4631 204° Southwest 458 527 32,000 -50 Descending Jacksonville Center
Fri 07:18:29 PM 30.4553 -80.5239 204° Southwest 458 527 32,000  Level Jacksonville Center
Fri 07:19:29 PM 30.3417 -80.5794 203° Southwest 458 527 32,000  Level Jacksonville Center
Fri 07:20:29 PM 30.2214 -80.6306 200° South 458 527 32,000  Level Jacksonville Center
Fri 07:21:29 PM 30.0992 -80.6767 198° South 458 527 32,000 -350 Level Jacksonville Center
Fri 07:22:29 PM 29.9767 -80.7250 199° South 464 534 31,300 -1,650 Descending Jacksonville Center
Fri 07:23:29 PM 29.8564 -80.7731 199° South 464 534 28,700 -2,550 Descending Jacksonville Center
Fri 07:24:29 PM 29.7300 -80.8214 198° South 464 534 26,200 -2,450 Descending Jacksonville Center
Fri 07:25:29 PM 29.6075 -80.8669 198° South 464 534 23,800 -2,400 Descending Jacksonville Center
Fri 07:26:29 PM 29.4892 -80.9147 199° South 457 526 21,400 -2,350 Descending Jacksonville Center
Fri 07:27:29 PM 29.3750 -80.9575 198° South 444 511 19,100 -2,250 Descending Jacksonville Center
Fri 07:28:29 PM 29.2692 -80.9931 196° South 434 499 16,900 -1,950 Descending Jacksonville Center
Fri 07:29:29 PM 29.1758 -81.0303 199° South 398 458 15,200 -1,600 Descending Jacksonville Center
Fri 07:30:29 PM 29.0989 -81.0603 199° South 352 405 13,700 -1,550 Descending Jacksonville Center
Fri 07:31:29 PM 29.0222 -81.0878 197° South 310 357 12,100 -1,100 Descending Jacksonville Center
Fri 07:32:29 PM 28.9444 -81.0608 163° South 276 318 11,500 -1,000 Descending Jacksonville Center
Fri 07:33:29 PM 28.8750 -81.0267 157° South 276 318 10,100 -1,400 Descending Jacksonville Center
Fri 07:34:29 PM 28.8122 -80.9969 157° South 265 305 8,700 -1,350 Descending Jacksonville Center
Fri 07:35:29 PM 28.7497 -81.0053 187° South 224 258 7,400 -1,250 Descending Jacksonville Center
Fri 07:36:29 PM 28.7422 -81.0694 262° West 167 192 6,200 -700 Descending Jacksonville Center
Fri 07:37:29 PM 28.7369 -81.1358 265° West 175 201 6,000 -500 Descending Jacksonville Center
Fri 07:38:29 PM 28.7314 -81.1972 264° West 193 222 5,200 -875 Descending Jacksonville Center
Fri 07:39:53 PM 28.6833 -81.2667 232° Southwest 200 230 3,900 -917 Descending Orlando TRACON
Fri 07:40:53 PM 28.6500 -81.3000 221° Southwest 188 216 3,000 -700 Descending Orlando TRACON
Fri 07:41:53 PM 28.6000 -81.3167 196° South 178 205 2,500 -250 Descending Orlando TRACON
Fri 07:42:53 PM 28.5500 -81.3333 196° South 149 171 2,500 -450 Level Orlando TRACON
Fri 07:43:53 PM 28.5167 -81.3333 180° South 140 161 1,600 -850 Descending Orlando TRACON
Fri 07:44:53 PM 28.4833 -81.3333 180° South 138 159 800 -800 Descending Orlando TRACON
Fri 07:46:00 PM 28.4294 -81.3090 180° South  Level Estimated
Fri 07:53:00 PM 28.4294 -81.3090 336° Northwest  Level Estimated
Fri 07:54:00 PM 28.4294 -81.3090 336° Northwest  Level Estimated
Fri 07:55:00 PM 28.4294 -81.3090 336° Northwest  Level Estimated
Fri 07:56:00 PM 28.4294 -81.3090 336° Northwest  Level Estimated

Login

Don't have an account? Register now (free) for customized features, flight alerts, and more!